Time;durP1;ratioP1;P1;durP2;ratioP2;P2;SDS_P1;SDS_P2;PMS_P1;PMS_P2;Temp;Humidity;BMP_temperature;BMP_pressure;BME280_temperature;BME280_humidity;BME280_pressure;Samples;Min_cycle;Max_cycle;Signal;HPM_P1;HPM_P2
2022/10/04 00:00:44;;;;;;;;;;;;;;;20.72;57.47;99046.41;2113861;27;20042;-52
2022/10/04 00:01:49;;;;;;;;;;;;;;;20.70;57.71;99045.81;2112688;27;19927;-47
2022/10/04 00:02:51;;;;;;;;;;;;;;;20.72;57.48;99040.19;2114365;27;20426;-50
2022/10/04 00:04:01;;;;;;;;;;;;;;;20.71;57.68;99047.47;2112499;27;19928;-50
2022/10/04 00:05:07;;;;;;;;;;;;;;;20.71;57.56;99044.75;2110720;28;20014;-52
2022/10/04 00:06:13;;;;;;;;;;;;;;;20.72;57.81;99043.72;2108990;28;19924;-53
2022/10/04 00:07:18;;;;;;;;;;;;;;;20.72;57.64;99049.09;2111687;27;19938;-53
2022/10/04 00:08:24;;;;;;;;;;;;;;;20.71;57.63;99050.16;2107143;27;19956;-52
2022/10/04 00:09:28;;;;;;;;;;;;;;;20.72;57.73;99051.81;2114112;27;20782;-50
2022/10/04 00:10:30;;;;;;;;;;;;;;;20.71;57.64;99047.47;2111910;27;20030;-53
2022/10/04 00:11:34;;;;;;;;;;;;;;;20.72;57.81;99054.50;2113256;27;19964;-49
2022/10/04 00:12:37;;;;;;;;;;;;;;;20.71;57.66;99049.34;2112704;27;19979;-50
2022/10/04 00:13:39;;;;;;;;;;;;;;;20.73;57.68;99052.66;2115436;27;19989;-52
2022/10/04 00:14:41;;;;;;;;;;;;;;;20.71;57.48;99055.53;2114949;27;19923;-52
2022/10/04 00:15:43;;;;;;;;;;;;;;;20.71;57.77;99052.03;2116739;27;19924;-51
2022/10/04 00:16:44;;;;;;;;;;;;;;;20.71;57.35;99058.25;2118501;27;20437;-51
2022/10/04 00:17:59;;;;;;;;;;;;;;;20.71;57.58;99057.41;2115980;27;19939;-47
2022/10/04 00:19:20;;;;;;;;;;;;;;;20.70;57.74;99059.28;2111407;27;20374;-55
2022/10/04 00:20:52;;;;;;;;;;;;;;;20.70;57.71;99053.91;2114186;27;19955;-53
2022/10/04 00:22:11;;;;;;;;;;;;;;;20.70;57.62;99056.59;2077779;28;19960;-52
2022/10/04 00:23:27;;;;;;;;;;;;;;;20.70;57.49;99059.28;2089155;28;20046;-52
2022/10/04 00:24:28;;;;;;;;;;;;;;;20.70;57.68;99053.91;2102600;27;19928;-52
2022/10/04 00:25:35;;;;;;;;;;;;;;;20.70;57.73;99053.91;2112786;27;20018;-50
2022/10/04 00:27:09;;;;;;;;;;;;;;;20.71;57.79;99057.41;2114092;27;20710;-51
2022/10/04 00:28:28;;;;;;;;;;;;;;;20.70;57.65;99059.28;2108861;27;19943;-49
2022/10/04 00:29:30;;;;;;;;;;;;;;;20.70;57.89;99053.06;2112182;27;20381;-55
2022/10/04 00:30:35;;;;;;;;;;;;;;;20.69;57.78;99054.91;2106968;27;19930;-52
2022/10/04 00:31:57;;;;;;;;;;;;;;;20.69;57.49;99060.31;2107654;28;19935;-52
2022/10/04 00:33:01;;;;;;;;;;;;;;;20.69;57.56;99057.63;2114982;27;19980;-50
2022/10/04 00:34:17;;;;;;;;;;;;;;;20.70;57.70;99055.78;2111357;27;19924;-49
2022/10/04 00:35:36;;;;;;;;;;;;;;;20.69;57.40;99052.22;2116700;27;19992;-48
2022/10/04 00:36:44;;;;;;;;;;;;;;;20.69;57.79;99057.63;2110792;27;19930;-52
2022/10/04 00:37:54;;;;;;;;;;;;;;;20.69;57.68;99051.41;2113527;27;20945;-51
2022/10/04 00:39:02;;;;;;;;;;;;;;;20.70;57.46;99062.00;2111088;27;20905;-50
2022/10/04 00:40:10;;;;;;;;;;;;;;;20.70;57.86;99062.00;2112089;27;19995;-51
2022/10/04 00:41:12;;;;;;;;;;;;;;;20.69;57.59;99063.00;2112980;27;19967;-54
2022/10/04 00:42:31;;;;;;;;;;;;;;;20.69;57.87;99049.53;2115629;27;20284;-50
2022/10/04 00:43:36;;;;;;;;;;;;;;;20.68;57.62;99057.84;2114538;27;20369;-52
2022/10/04 00:44:41;;;;;;;;;;;;;;;20.69;57.73;99060.31;2110975;27;19932;-49
2022/10/04 00:45:46;;;;;;;;;;;;;;;20.69;57.80;99059.47;2114856;27;19927;-50
2022/10/04 00:46:47;;;;;;;;;;;;;;;20.68;57.79;99064.06;2106853;28;19931;-52
2022/10/04 00:48:01;;;;;;;;;;;;;;;20.69;57.84;99059.47;2117932;27;19934;-52
2022/10/04 00:49:05;;;;;;;;;;;;;;;20.68;57.64;99055.97;2113871;27;19951;-51
2022/10/04 00:50:11;;;;;;;;;;;;;;;20.69;57.59;99060.31;2115363;27;19924;-52
2022/10/04 00:51:17;;;;;;;;;;;;;;;20.68;57.56;99069.44;2116889;27;19983;-51
2022/10/04 00:52:22;;;;;;;;;;;;;;;20.69;57.56;99059.47;2108831;27;19928;-49
2022/10/04 00:53:28;;;;;;;;;;;;;;;20.69;57.63;99065.69;2114301;27;19972;-51
2022/10/04 00:54:33;;;;;;;;;;;;;;;20.68;57.66;99061.34;2113071;27;19931;-47
2022/10/04 00:55:34;;;;;;;;;;;;;;;20.68;57.87;99069.44;2109072;27;19931;-47
2022/10/04 00:56:40;;;;;;;;;;;;;;;20.68;57.51;99064.06;2112761;27;19935;-48
2022/10/04 00:57:43;;;;;;;;;;;;;;;20.66;57.84;99060.72;2115568;27;19934;-50
2022/10/04 00:58:48;;;;;;;;;;;;;;;20.67;57.59;99062.41;2113254;27;19932;-48
2022/10/04 00:59:49;;;;;;;;;;;;;;;20.68;57.81;99063.22;2111442;27;20346;-49
2022/10/04 01:00:52;;;;;;;;;;;;;;;20.68;57.64;99064.06;2114054;27;20301;-48
2022/10/04 01:01:55;;;;;;;;;;;;;;;20.68;57.54;99064.06;2113163;27;20514;-52
2022/10/04 01:03:01;;;;;;;;;;;;;;;20.67;57.53;99067.78;2113661;27;19927;-48
2022/10/04 01:04:02;;;;;;;;;;;;;;;20.66;57.91;99066.13;2113944;27;19931;-54
2022/10/04 01:05:06;;;;;;;;;;;;;;;20.66;57.56;99060.72;2112037;27;20600;-53
2022/10/04 01:06:09;;;;;;;;;;;;;;;20.65;57.66;99063.66;2117627;27;19996;-50
2022/10/04 01:07:14;;;;;;;;;;;;;;;20.66;57.77;99065.28;2115122;27;19927;-51
2022/10/04 01:08:17;;;;;;;;;;;;;;;20.66;57.50;99066.13;2113108;27;19939;-52
2022/10/04 01:09:20;;;;;;;;;;;;;;;20.66;57.83;99058.03;2117488;27;19932;-47
2022/10/04 01:10:23;;;;;;;;;;;;;;;20.66;57.84;99066.13;2114019;27;20504;-50
2022/10/04 01:11:27;;;;;;;;;;;;;;;20.66;57.60;99059.91;2114222;27;19932;-49
2022/10/04 01:12:35;;;;;;;;;;;;;;;20.65;57.63;99061.78;2112660;27;19957;-52
2022/10/04 01:13:39;;;;;;;;;;;;;;;20.65;57.87;99058.25;2114740;27;19927;-50
2022/10/04 01:14:45;;;;;;;;;;;;;;;20.63;57.77;99055.75;2111075;27;19924;-55
2022/10/04 01:15:50;;;;;;;;;;;;;;;20.66;57.90;99049.13;2113767;27;19924;-50
2022/10/04 01:16:51;;;;;;;;;;;;;;;20.66;57.69;99057.22;2113410;27;20529;-50
2022/10/04 01:18:14;;;;;;;;;;;;;;;20.65;57.85;99047.47;2113983;27;19931;-52
2022/10/04 01:19:32;;;;;;;;;;;;;;;20.64;57.53;99052.00;2113522;27;20018;-54
2022/10/04 01:20:36;;;;;;;;;;;;;;;20.66;57.77;99046.44;2113432;27;20282;-52
2022/10/04 01:21:37;;;;;;;;;;;;;;;20.64;57.49;99043.91;2116683;27;20076;-51
2022/10/04 01:22:42;;;;;;;;;;;;;;;20.65;57.73;99045.59;2114756;27;19923;-48
2022/10/04 01:23:44;;;;;;;;;;;;;;;20.65;57.73;99048.28;2115836;27;19950;-49
2022/10/04 01:24:45;;;;;;;;;;;;;;;20.65;57.63;99050.16;2112918;27;19932;-52
2022/10/04 01:25:47;;;;;;;;;;;;;;;20.63;57.73;99053.06;2111871;27;20638;-53
2022/10/04 01:26:49;;;;;;;;;;;;;;;20.64;57.56;99045.78;2115808;27;19934;-47
2022/10/04 01:27:49;;;;;;;;;;;;;;;20.64;57.85;99051.19;2117944;27;19967;-48
2022/10/04 01:28:51;;;;;;;;;;;;;;;20.64;57.93;99043.91;2113749;27;20347;-46
2022/10/04 01:29:51;;;;;;;;;;;;;;;20.64;57.53;99045.78;2114594;27;19924;-48
2022/10/04 01:30:53;;;;;;;;;;;;;;;20.63;57.80;99039.56;2114881;27;20386;-48
2022/10/04 01:31:55;;;;;;;;;;;;;;;20.62;57.76;99037.94;2112583;27;19935;-48
2022/10/04 01:32:57;;;;;;;;;;;;;;;20.62;57.90;99037.94;2114485;27;19954;-49
2022/10/04 01:33:58;;;;;;;;;;;;;;;20.64;57.77;99037.72;2115096;27;19976;-48
2022/10/04 01:35:00;;;;;;;;;;;;;;;20.63;57.65;99034.19;2112547;27;20011;-47
2022/10/04 01:36:00;;;;;;;;;;;;;;;20.63;57.68;99039.56;2115048;27;19969;-49
2022/10/04 01:37:02;;;;;;;;;;;;;;;20.64;57.82;99035.84;2114847;27;20410;-49
2022/10/04 01:38:06;;;;;;;;;;;;;;;20.63;57.78;99031.50;2110452;27;19928;-47
2022/10/04 01:39:07;;;;;;;;;;;;;;;20.62;57.94;99034.41;2114375;27;19967;-51
2022/10/04 01:40:08;;;;;;;;;;;;;;;20.61;57.73;99030.88;2111517;27;19960;-47
2022/10/04 01:41:13;;;;;;;;;;;;;;;20.63;57.65;99030.66;2115109;27;20194;-47
2022/10/04 01:42:17;;;;;;;;;;;;;;;20.61;57.46;99036.25;2111230;27;20377;-48
2022/10/04 01:43:22;;;;;;;;;;;;;;;20.62;57.76;99027.16;2112457;27;19924;-48
2022/10/04 01:44:26;;;;;;;;;;;;;;;20.61;57.97;99030.03;2115675;27;19969;-48
2022/10/04 01:45:31;;;;;;;;;;;;;;;20.61;57.89;99030.88;2116369;27;19933;-50
2022/10/04 01:46:33;;;;;;;;;;;;;;;20.61;57.86;99025.47;2109633;27;20009;-49
2022/10/04 01:47:38;;;;;;;;;;;;;;;20.61;57.69;99033.56;2119821;27;19966;-48
2022/10/04 01:48:41;;;;;;;;;;;;;;;20.61;57.80;99027.34;2113555;27;19931;-50
2022/10/04 01:49:43;;;;;;;;;;;;;;;20.61;57.72;99032.72;2106446;27;21956;-48
2022/10/04 01:50:46;;;;;;;;;;;;;;;20.61;57.95;99028.16;2112036;27;19924;-48
2022/10/04 01:51:53;;;;;;;;;;;;;;;20.60;57.65;99029.22;2114331;27;20380;-49
2022/10/04 01:52:55;;;;;;;;;;;;;;;20.61;57.62;99024.66;2113247;27;19931;-48
2022/10/04 01:54:00;;;;;;;;;;;;;;;20.60;57.75;99023.81;2109537;27;19928;-48
2022/10/04 01:55:02;;;;;;;;;;;;;;;20.61;57.58;99024.66;2108761;27;20393;-49
2022/10/04 01:56:05;;;;;;;;;;;;;;;20.60;57.76;99023.81;2109280;27;19932;-48
2022/10/04 01:57:10;;;;;;;;;;;;;;;20.60;57.87;99023.81;2112694;27;19934;-50
2022/10/04 01:58:14;;;;;;;;;;;;;;;20.60;58.00;99026.53;2111936;28;19972;-48
2022/10/04 01:59:19;;;;;;;;;;;;;;;20.59;57.84;99019.47;2111298;28;19927;-48
2022/10/04 02:00:22;;;;;;;;;;;;;;;20.59;57.98;99018.63;2111432;28;20065;-48
2022/10/04 02:01:27;;;;;;;;;;;;;;;20.59;57.63;99018.63;2112954;28;19935;-49
2022/10/04 02:02:33;;;;;;;;;;;;;;;20.58;57.83;99020.50;2115270;27;19932;-50
2022/10/04 02:03:35;;;;;;;;;;;;;;;20.58;57.99;99015.13;2113621;28;19924;-50
2022/10/04 02:04:39;;;;;;;;;;;;;;;20.58;57.73;99020.50;2111273;27;19959;-50
2022/10/04 02:05:43;;;;;;;;;;;;;;;20.58;57.97;99017.81;2113179;27;19928;-55
2022/10/04 02:06:45;;;;;;;;;;;;;;;20.58;57.82;99015.13;2115868;28;19951;-51
2022/10/04 02:07:47;;;;;;;;;;;;;;;20.59;57.95;99015.94;2110409;28;20330;-51
2022/10/04 02:08:50;;;;;;;;;;;;;;;20.60;57.75;99017.59;2111512;27;20384;-48
2022/10/04 02:09:55;;;;;;;;;;;;;;;20.60;57.89;99023.00;2112476;28;19927;-49
2022/10/04 02:10:57;;;;;;;;;;;;;;;20.58;57.68;99015.13;2112043;27;19928;-48
2022/10/04 02:11:58;;;;;;;;;;;;;;;20.60;57.70;99017.59;2115076;28;19968;-49
2022/10/04 02:13:00;;;;;;;;;;;;;;;20.60;57.93;99017.59;2108965;28;19927;-48
2022/10/04 02:14:02;;;;;;;;;;;;;;;20.59;57.86;99014.09;2111935;27;19932;-49
2022/10/04 02:15:06;;;;;;;;;;;;;;;20.59;57.75;99018.63;2111562;28;20015;-48
2022/10/04 02:16:08;;;;;;;;;;;;;;;20.58;57.98;99012.41;2113375;28;19924;-50
2022/10/04 02:17:12;;;;;;;;;;;;;;;20.58;57.74;99015.13;2112894;28;19928;-50
2022/10/04 02:18:13;;;;;;;;;;;;;;;20.58;57.99;99016.97;2112142;28;20440;-53
2022/10/04 02:19:16;;;;;;;;;;;;;;;20.58;57.68;99019.69;2107428;28;19970;-52
2022/10/04 02:20:20;;;;;;;;;;;;;;;20.59;57.80;99016.78;2106286;28;19932;-48
2022/10/04 02:21:22;;;;;;;;;;;;;;;20.58;57.84;99015.13;2111282;28;20023;-52
2022/10/04 02:22:24;;;;;;;;;;;;;;;20.57;58.06;99018.84;2110030;28;19967;-49
2022/10/04 02:23:26;;;;;;;;;;;;;;;20.58;57.59;99014.28;2113316;28;19931;-51
2022/10/04 02:24:27;;;;;;;;;;;;;;;20.58;57.94;99017.81;2109714;28;19935;-48
2022/10/04 02:25:30;;;;;;;;;;;;;;;20.57;57.82;99016.16;2109041;28;19927;-50
2022/10/04 02:26:31;;;;;;;;;;;;;;;20.57;57.77;99013.47;2104191;28;19931;-52
2022/10/04 02:27:32;;;;;;;;;;;;;;;20.56;57.59;99009.13;2114185;28;19923;-51
2022/10/04 02:28:33;;;;;;;;;;;;;;;20.58;57.88;99009.72;2113106;28;19923;-49
2022/10/04 02:29:35;;;;;;;;;;;;;;;20.57;57.94;99009.94;2118514;27;19939;-48
2022/10/04 02:30:37;;;;;;;;;;;;;;;20.57;57.95;99012.63;2112253;27;19932;-48
2022/10/04 02:32:59;;;;;;;;;;;;;;;20.57;57.74;99008.06;2113344;28;19927;-48
2022/10/04 02:33:59;;;;;;;;;;;;;;;20.57;57.96;99010.78;2111778;28;19927;-48
2022/10/04 02:35:01;;;;;;;;;;;;;;;20.57;57.73;99010.78;2114719;27;19931;-48
2022/10/04 02:36:02;;;;;;;;;;;;;;;20.58;57.63;99007.03;2109131;28;19928;-48
2022/10/04 02:37:04;;;;;;;;;;;;;;;20.57;57.73;99008.06;2111266;28;19924;-51
2022/10/04 02:38:08;;;;;;;;;;;;;;;20.57;57.81;99005.38;2112777;27;19931;-48
2022/10/04 02:39:14;;;;;;;;;;;;;;;20.57;57.96;99005.38;2116387;27;19951;-49
2022/10/04 02:40:16;;;;;;;;;;;;;;;20.58;57.73;99000.81;2112852;27;20601;-48
2022/10/04 02:41:23;;;;;;;;;;;;;;;20.57;57.98;99002.69;2108696;27;20528;-51
2022/10/04 02:42:30;;;;;;;;;;;;;;;20.55;57.76;99003.94;2108054;27;19936;-48
2022/10/04 02:43:35;;;;;;;;;;;;;;;20.55;57.89;99004.75;2115896;27;20045;-50
2022/10/04 02:44:40;;;;;;;;;;;;;;;20.53;57.64;98998.72;2113438;27;20396;-52
2022/10/04 02:45:45;;;;;;;;;;;;;;;20.56;58.04;99005.56;2112544;28;20010;-51
2022/10/04 02:46:50;;;;;;;;;;;;;;;20.55;58.10;99006.63;2109800;28;19971;-48
2022/10/04 02:47:52;;;;;;;;;;;;;;;20.56;57.96;99010.97;2116264;27;19933;-51
2022/10/04 02:48:57;;;;;;;;;;;;;;;20.55;57.80;99009.31;2114851;27;19928;-51
2022/10/04 02:50:00;;;;;;;;;;;;;;;20.53;57.95;99007.66;2115652;27;19973;-51
2022/10/04 02:51:10;;;;;;;;;;;;;;;20.55;57.73;99012.00;2111638;27;20389;-47
2022/10/04 02:52:15;;;;;;;;;;;;;;;20.56;57.80;99014.50;2111269;27;19971;-49
2022/10/04 02:53:18;;;;;;;;;;;;;;;20.55;57.81;99015.53;2109287;27;19928;-49
2022/10/04 02:54:28;;;;;;;;;;;;;;;20.55;58.04;99007.44;2108317;27;20392;-48
2022/10/04 02:55:30;;;;;;;;;;;;;;;20.55;57.87;99012.84;2112561;27;19976;-49
2022/10/04 02:56:33;;;;;;;;;;;;;;;20.55;57.76;99010.13;2109404;27;19982;-48
2022/10/04 02:57:34;;;;;;;;;;;;;;;20.55;57.72;99018.22;2114237;27;19931;-48
2022/10/04 02:58:38;;;;;;;;;;;;;;;20.56;57.87;99016.34;2115673;27;19932;-48
2022/10/04 02:59:39;;;;;;;;;;;;;;;20.55;57.79;99017.41;2113710;27;20684;-50
2022/10/04 03:00:46;;;;;;;;;;;;;;;20.55;57.97;99020.91;2113576;27;19972;-49
2022/10/04 03:01:50;;;;;;;;;;;;;;;20.54;58.11;99019.28;2117369;27;20305;-50
2022/10/04 03:03:10;;;;;;;;;;;;;;;20.53;58.08;99014.91;2108685;27;19970;-48
2022/10/04 03:04:13;;;;;;;;;;;;;;;20.52;58.00;99022.13;2116429;27;19923;-48
2022/10/04 03:05:14;;;;;;;;;;;;;;;20.53;57.86;99017.59;2109508;27;19947;-47
2022/10/04 03:06:18;;;;;;;;;;;;;;;20.52;58.08;99024.00;2113768;27;19975;-48
2022/10/04 03:07:21;;;;;;;;;;;;;;;20.51;58.12;99017.78;2111711;27;19934;-48
2022/10/04 03:08:21;;;;;;;;;;;;;;;20.52;57.67;99016.72;2113939;27;19927;-48
2022/10/04 03:09:24;;;;;;;;;;;;;;;20.53;57.93;99017.59;2113026;27;20015;-48
2022/10/04 03:10:25;;;;;;;;;;;;;;;20.53;57.93;99023.84;2100903;28;22183;-49
2022/10/04 03:11:30;;;;;;;;;;;;;;;20.53;57.93;99018.44;2106651;27;19946;-51
2022/10/04 03:12:32;;;;;;;;;;;;;;;20.55;58.00;99014.69;2108362;27;19980;-51
2022/10/04 03:13:36;;;;;;;;;;;;;;;20.54;57.93;99021.97;2113623;27;19931;-51
2022/10/04 03:14:36;;;;;;;;;;;;;;;20.53;57.73;99023.84;2113665;27;19928;-50
2022/10/04 03:15:38;;;;;;;;;;;;;;;20.53;58.01;99014.91;2115278;27;20477;-48
2022/10/04 03:16:41;;;;;;;;;;;;;;;20.53;57.96;99018.44;2111645;27;19981;-49
2022/10/04 03:17:43;;;;;;;;;;;;;;;20.54;57.88;99021.97;2111444;27;20002;-49
2022/10/04 03:18:45;;;;;;;;;;;;;;;20.54;57.83;99016.56;2112115;27;20468;-55
2022/10/04 03:19:47;;;;;;;;;;;;;;;20.53;57.89;99020.28;2113289;27;19939;-52
2022/10/04 03:20:48;;;;;;;;;;;;;;;20.53;57.79;99021.16;2115927;27;19988;-47
2022/10/04 03:21:51;;;;;;;;;;;;;;;20.49;57.70;99016.31;2113959;27;20000;-53
2022/10/04 03:22:54;;;;;;;;;;;;;;;20.52;57.98;99024.00;2111376;27;20361;-48
2022/10/04 03:23:56;;;;;;;;;;;;;;;20.51;58.05;99019.66;2112683;27;19935;-51
2022/10/04 03:24:56;;;;;;;;;;;;;;;20.52;57.75;99022.13;2118316;27;20518;-50
2022/10/04 03:26:01;;;;;;;;;;;;;;;20.52;57.72;99024.00;2114589;27;19923;-51
2022/10/04 03:27:03;;;;;;;;;;;;;;;20.51;58.08;99025.03;2114724;27;19932;-53
2022/10/04 03:28:07;;;;;;;;;;;;;;;20.52;57.92;99027.50;2111532;27;19924;-52
2022/10/04 03:29:09;;;;;;;;;;;;;;;20.53;57.89;99025.69;2109510;27;19935;-48
2022/10/04 03:30:12;;;;;;;;;;;;;;;20.52;57.71;99026.69;2114426;27;19923;-49
2022/10/04 03:31:13;;;;;;;;;;;;;;;20.52;57.64;99022.13;2115978;27;19980;-47
2022/10/04 03:32:16;;;;;;;;;;;;;;;20.51;57.79;99025.03;2113410;27;19963;-47
2022/10/04 03:33:18;;;;;;;;;;;;;;;20.50;57.86;99017.97;2114372;27;19928;-48
2022/10/04 03:34:22;;;;;;;;;;;;;;;20.51;58.12;99020.47;2116484;27;20013;-48
2022/10/04 03:35:27;;;;;;;;;;;;;;;20.53;58.03;99028.38;2118008;27;20632;-48
2022/10/04 03:36:29;;;;;;;;;;;;;;;20.53;58.01;99020.28;2112268;27;19928;-51
2022/10/04 03:37:31;;;;;;;;;;;;;;;20.51;58.00;99017.78;2112712;27;19935;-47
2022/10/04 03:38:34;;;;;;;;;;;;;;;20.51;58.02;99025.03;2116416;27;20515;-50
2022/10/04 03:39:37;;;;;;;;;;;;;;;20.52;57.70;99024.81;2113641;27;19939;-48
2022/10/04 03:40:42;;;;;;;;;;;;;;;20.54;57.75;99024.66;2118519;27;20051;-49
2022/10/04 03:41:43;;;;;;;;;;;;;;;20.52;57.79;99022.13;2110011;27;20793;-48
2022/10/04 03:42:45;;;;;;;;;;;;;;;20.52;57.72;99021.31;2111141;27;19924;-49
2022/10/04 03:43:49;;;;;;;;;;;;;;;20.50;57.85;99008.06;2113224;27;19935;-51
2022/10/04 03:44:52;;;;;;;;;;;;;;;20.51;57.68;99016.97;2116058;27;19932;-48
2022/10/04 03:45:54;;;;;;;;;;;;;;;20.49;58.13;99017.16;2118192;27;19935;-51
2022/10/04 03:46:55;;;;;;;;;;;;;;;20.49;58.15;99014.47;2110357;27;19932;-49
2022/10/04 03:48:00;;;;;;;;;;;;;;;20.51;57.83;99014.25;2109905;27;20849;-52
2022/10/04 03:49:02;;;;;;;;;;;;;;;20.51;57.95;99020.47;2110490;27;20757;-48
2022/10/04 03:50:06;;;;;;;;;;;;;;;20.51;58.06;99016.97;2113189;27;20641;-49
2022/10/04 03:51:12;;;;;;;;;;;;;;;20.50;57.77;99023.38;2115184;27;19945;-48
2022/10/04 03:52:16;;;;;;;;;;;;;;;20.49;57.81;99019.03;2112555;27;20335;-49
2022/10/04 03:53:24;;;;;;;;;;;;;;;20.50;57.72;99017.97;2114279;27;19937;-49
2022/10/04 03:54:26;;;;;;;;;;;;;;;20.50;57.97;99015.28;2115008;27;19923;-52
2022/10/04 03:55:32;;;;;;;;;;;;;;;20.50;57.66;99024.22;2116994;27;19931;-50
2022/10/04 03:56:34;;;;;;;;;;;;;;;20.50;57.98;99024.22;2113402;27;19923;-48
2022/10/04 03:57:37;;;;;;;;;;;;;;;20.49;57.82;99027.09;2115732;27;19924;-49
2022/10/04 03:58:38;;;;;;;;;;;;;;;20.49;57.76;99019.84;2117893;27;20289;-51
2022/10/04 03:59:42;;;;;;;;;;;;;;;20.49;57.84;99021.72;2116030;27;20007;-50
2022/10/04 04:00:43;;;;;;;;;;;;;;;20.48;57.73;99020.91;2113633;27;19931;-48
2022/10/04 04:01:47;;;;;;;;;;;;;;;20.50;57.66;99024.22;2113177;27;20301;-49
2022/10/04 04:02:49;;;;;;;;;;;;;;;20.48;57.73;99020.06;2116127;27;19924;-48
2022/10/04 04:04:01;;;;;;;;;;;;;;;20.49;58.09;99016.31;2119045;27;20653;-49
2022/10/04 04:05:05;;;;;;;;;;;;;;;20.49;57.73;99017.16;2114186;27;19924;-48
2022/10/04 04:06:11;;;;;;;;;;;;;;;20.48;57.99;99023.59;2116846;27;19931;-50
2022/10/04 04:07:15;;;;;;;;;;;;;;;20.48;57.75;99028.16;2116261;27;19976;-51
2022/10/04 04:08:22;;;;;;;;;;;;;;;20.47;57.88;99016.53;2117236;27;20014;-49
2022/10/04 04:09:38;;;;;;;;;;;;;;;20.48;57.67;99020.06;2116511;27;19924;-48
2022/10/04 04:10:43;;;;;;;;;;;;;;;20.48;57.76;99020.91;2115653;27;19927;-51
2022/10/04 04:11:46;;;;;;;;;;;;;;;20.46;57.79;99017.56;2114902;27;20011;-48
2022/10/04 04:12:53;;;;;;;;;;;;;;;20.47;57.92;99010.31;2110826;27;19967;-49
2022/10/04 04:13:58;;;;;;;;;;;;;;;20.46;58.11;99019.44;2116034;27;20006;-48
2022/10/04 04:15:01;;;;;;;;;;;;;;;20.46;58.08;99011.34;2114377;27;19928;-47
2022/10/04 04:16:04;;;;;;;;;;;;;;;20.46;57.97;99017.56;2117257;27;19975;-48
2022/10/04 04:17:26;;;;;;;;;;;;;;;20.46;58.06;99014.88;2116019;27;19934;-49
2022/10/04 04:18:30;;;;;;;;;;;;;;;20.46;57.80;99022.97;2110779;27;19932;-47
2022/10/04 04:19:32;;;;;;;;;;;;;;;20.47;57.82;99013.00;2118044;27;19924;-49
2022/10/04 04:20:35;;;;;;;;;;;;;;;20.47;57.71;99021.91;2117370;27;20342;-48
2022/10/04 04:21:35;;;;;;;;;;;;;;;20.44;58.10;99016.94;2114401;27;19952;-49
2022/10/04 04:22:38;;;;;;;;;;;;;;;20.46;58.11;99016.75;2110423;27;19994;-47
2022/10/04 04:23:40;;;;;;;;;;;;;;;20.47;57.84;99013.00;2114427;27;20448;-48
2022/10/04 04:24:43;;;;;;;;;;;;;;;20.45;57.87;99015.09;2113586;27;19923;-48
2022/10/04 04:25:45;;;;;;;;;;;;;;;20.45;57.88;99015.09;2113548;27;19967;-49
2022/10/04 04:26:50;;;;;;;;;;;;;;;20.47;58.03;99021.09;2111298;27;20400;-49
2022/10/04 04:27:52;;;;;;;;;;;;;;;20.47;57.80;99023.78;2113180;27;19928;-50
2022/10/04 04:28:55;;;;;;;;;;;;;;;20.46;57.89;99012.19;2113564;27;19963;-50
2022/10/04 04:29:58;;;;;;;;;;;;;;;20.47;57.76;99019.22;2114340;27;19927;-49
2022/10/04 04:31:04;;;;;;;;;;;;;;;20.47;57.74;99018.41;2116658;27;19923;-48
2022/10/04 04:32:07;;;;;;;;;;;;;;;20.46;58.06;99016.75;2106458;27;19931;-50
2022/10/04 04:33:12;;;;;;;;;;;;;;;20.45;57.94;99020.47;2117172;27;19924;-50
2022/10/04 04:34:15;;;;;;;;;;;;;;;20.45;57.77;99021.31;2114805;27;20330;-47
2022/10/04 04:35:22;;;;;;;;;;;;;;;20.46;58.09;99027.53;2115594;27;20024;-51
2022/10/04 04:36:22;;;;;;;;;;;;;;;20.46;58.05;99024.81;2115587;27;19979;-48
2022/10/04 04:37:24;;;;;;;;;;;;;;;20.46;57.93;99022.13;2115278;27;20358;-49
2022/10/04 04:38:25;;;;;;;;;;;;;;;20.44;57.91;99022.31;2117849;27;19934;-49
2022/10/04 04:39:39;;;;;;;;;;;;;;;20.45;57.85;99021.31;2113263;27;20505;-48
2022/10/04 04:40:41;;;;;;;;;;;;;;;20.45;57.90;99026.69;2116755;27;19930;-48
2022/10/04 04:41:41;;;;;;;;;;;;;;;20.45;57.97;99032.09;2112657;27;20408;-48
2022/10/04 04:42:44;;;;;;;;;;;;;;;20.45;57.84;99029.41;2107422;27;20010;-50
2022/10/04 04:43:44;;;;;;;;;;;;;;;20.46;57.71;99030.22;2115832;27;19924;-48
2022/10/04 04:44:47;;;;;;;;;;;;;;;20.45;57.86;99028.56;2110974;27;19928;-47
2022/10/04 04:45:48;;;;;;;;;;;;;;;20.44;57.82;99032.28;2114603;27;19989;-48
2022/10/04 04:46:52;;;;;;;;;;;;;;;20.44;57.81;99026.88;2114924;27;20303;-48
2022/10/04 04:47:54;;;;;;;;;;;;;;;20.43;57.97;99036.03;2115572;27;19924;-47
2022/10/04 04:49:00;;;;;;;;;;;;;;;20.44;57.92;99032.28;2115196;27;19927;-49
2022/10/04 04:50:04;;;;;;;;;;;;;;;20.43;57.90;99033.31;2113704;27;19931;-49
2022/10/04 04:51:05;;;;;;;;;;;;;;;20.41;57.81;99036.22;2111277;27;19928;-49
2022/10/04 04:52:13;;;;;;;;;;;;;;;20.43;58.21;99038.72;2110330;27;21185;-48
2022/10/04 04:53:17;;;;;;;;;;;;;;;20.44;58.07;99041.19;2115364;27;19934;-48
2022/10/04 04:54:20;;;;;;;;;;;;;;;20.44;57.88;99035.78;2114030;27;19924;-49
2022/10/04 04:55:23;;;;;;;;;;;;;;;20.43;58.12;99044.09;2114766;27;19931;-49
2022/10/04 04:56:25;;;;;;;;;;;;;;;20.41;57.86;99038.91;2112253;27;20053;-49
2022/10/04 04:57:27;;;;;;;;;;;;;;;20.43;57.82;99033.31;2115029;27;20460;-49
2022/10/04 04:58:31;;;;;;;;;;;;;;;20.42;58.03;99043.28;2113669;27;19976;-50
2022/10/04 04:59:33;;;;;;;;;;;;;;;20.43;58.09;99046.78;2112593;27;19938;-47
2022/10/04 05:00:34;;;;;;;;;;;;;;;20.40;57.99;99041.81;2112814;27;19932;-52
2022/10/04 05:01:41;;;;;;;;;;;;;;;20.39;58.28;99048.22;2111126;27;19931;-50
2022/10/04 05:02:49;;;;;;;;;;;;;;;20.38;58.30;99046.56;2111898;27;19935;-49
2022/10/04 05:04:02;;;;;;;;;;;;;;;20.40;57.92;99055.28;2112667;27;19932;-50
2022/10/04 05:05:12;;;;;;;;;;;;;;;20.39;57.86;99046.34;2113079;27;19938;-49
2022/10/04 05:06:24;;;;;;;;;;;;;;;20.40;57.90;99053.41;2113363;27;20404;-53
2022/10/04 05:07:24;;;;;;;;;;;;;;;20.40;58.13;99050.72;2113987;27;19924;-50
2022/10/04 05:08:27;;;;;;;;;;;;;;;20.41;57.77;99057.75;2112428;27;20018;-50
2022/10/04 05:09:29;;;;;;;;;;;;;;;20.42;57.81;99058.59;2108633;27;20342;-47
2022/10/04 05:10:32;;;;;;;;;;;;;;;20.42;57.76;99059.44;2116391;27;19935;-49
2022/10/04 05:11:34;;;;;;;;;;;;;;;20.40;58.16;99064.19;2116392;27;19924;-49
2022/10/04 05:12:36;;;;;;;;;;;;;;;20.41;57.84;99062.31;2109749;27;20023;-52
2022/10/04 05:13:39;;;;;;;;;;;;;;;20.43;58.19;99065.66;2110516;27;19932;-54
2022/10/04 05:14:45;;;;;;;;;;;;;;;20.40;57.96;99056.13;2112541;27;19927;-51
2022/10/04 05:15:46;;;;;;;;;;;;;;;20.40;57.81;99066.91;2111105;27;20467;-54
2022/10/04 05:16:49;;;;;;;;;;;;;;;20.41;58.18;99065.03;2107404;27;21234;-53
2022/10/04 05:17:51;;;;;;;;;;;;;;;20.41;57.86;99078.50;2112336;27;19934;-48
2022/10/04 05:18:57;;;;;;;;;;;;;;;20.44;57.79;99073.50;2112042;27;20285;-48
2022/10/04 05:20:00;;;;;;;;;;;;;;;20.43;58.08;99076.44;2109979;27;20297;-56
2022/10/04 05:21:04;;;;;;;;;;;;;;;20.41;57.98;99079.31;2102654;27;22506;-51
2022/10/04 05:22:07;;;;;;;;;;;;;;;20.42;57.97;99085.53;2109848;27;19928;-53
2022/10/04 05:23:11;;;;;;;;;;;;;;;20.41;57.85;99073.94;2112666;27;20304;-52
2022/10/04 05:24:16;;;;;;;;;;;;;;;20.44;58.15;99086.16;2112184;27;19931;-51
2022/10/04 05:25:24;;;;;;;;;;;;;;;20.43;57.98;99087.22;2110889;27;20517;-53
2022/10/04 05:26:26;;;;;;;;;;;;;;;20.40;58.21;99084.94;2110923;27;20409;-50
2022/10/04 05:27:30;;;;;;;;;;;;;;;20.40;58.16;99083.06;2108710;27;19971;-47
2022/10/04 05:28:31;;;;;;;;;;;;;;;20.41;58.13;99083.88;2114120;27;19980;-47
2022/10/04 05:29:35;;;;;;;;;;;;;;;20.40;58.21;99088.44;2112174;27;19989;-49
2022/10/04 05:30:42;;;;;;;;;;;;;;;20.40;58.01;99084.94;2112534;27;20392;-50
2022/10/04 05:31:48;;;;;;;;;;;;;;;20.39;58.16;99088.63;2111811;27;19927;-54
2022/10/04 05:32:54;;;;;;;;;;;;;;;20.38;58.10;99090.50;2111169;27;19928;-54
2022/10/04 05:33:58;;;;;;;;;;;;;;;20.39;57.95;99091.34;2108969;27;19930;-54
2022/10/04 05:34:59;;;;;;;;;;;;;;;20.40;57.99;99098.41;2113023;27;19947;-51
2022/10/04 05:36:09;;;;;;;;;;;;;;;20.37;58.02;99088.84;2112122;27;19927;-50
2022/10/04 05:37:29;;;;;;;;;;;;;;;20.37;58.21;99093.41;2109985;27;19935;-50